Time;durP1;ratioP1;P1;durP2;ratioP2;P2;SDS_P1;SDS_P2;PMS_P1;PMS_P2;Temp;Humidity;BMP_temperature;BMP_pressure;BME280_temperature;BME280_humidity;BME280_pressure;Samples;Min_cycle;Max_cycle;Signal;HPM_P1;HPM_P2
2021/07/30 00:01:58;;;;;;;8.80;6.37;;;;;;;15.93;100.00;93032.05;1723379;80;21569;-78
2021/07/30 00:04:25;;;;;;;9.88;7.22;;;;;;;15.90;100.00;93028.20;1711382;79;21129;-78
2021/07/30 00:06:54;;;;;;;10.95;6.90;;;;;;;15.85;100.00;93036.22;1662711;81;21851;-78
2021/07/30 00:09:23;;;;;;;10.08;6.70;;;;;;;15.75;100.00;93029.23;1737399;80;21418;-78
2021/07/30 00:11:50;;;;;;;10.20;6.65;;;;;;;15.76;100.00;93024.55;1707055;79;21052;-78
2021/07/30 00:14:17;;;;;;;10.85;6.78;;;;;;;15.80;100.00;93034.80;1738680;79;21080;-78
2021/07/30 00:16:44;;;;;;;7.50;6.28;;;;;;;15.72;100.00;93025.22;1712848;78;20985;-78
2021/07/30 00:19:11;;;;;;;10.05;6.97;;;;;;;15.58;100.00;93025.64;1695609;80;21069;-78
2021/07/30 00:21:40;;;;;;;9.98;7.12;;;;;;;15.49;100.00;93027.63;1678041;80;22123;-78
2021/07/30 00:24:07;;;;;;;12.58;7.05;;;;;;;15.47;100.00;93028.08;1689462;80;20987;-77
2021/07/30 00:26:34;;;;;;;7.87;6.90;;;;;;;15.50;100.00;93032.70;1704431;78;21108;-78
2021/07/30 00:29:01;;;;;;;8.70;6.78;;;;;;;15.53;100.00;93028.30;1744330;78;21200;-78
2021/07/30 00:31:30;;;;;;;7.35;6.60;;;;;;;15.52;100.00;93024.03;1731884;80;21075;-77
2021/07/30 00:33:57;;;;;;;8.40;6.95;;;;;;;15.55;100.00;93021.79;1751246;80;21276;-78
2021/07/30 00:36:26;;;;;;;9.05;7.03;;;;;;;15.60;100.00;93026.72;1723259;79;21511;-78
2021/07/30 00:38:55;;;;;;;11.75;8.00;;;;;;;15.63;100.00;93028.59;1723484;80;21103;-79
2021/07/30 00:41:35;;;;;;;12.30;7.78;;;;;;;15.65;100.00;93024.86;1709192;80;20981;-79
2021/07/30 00:43:56;;;;;;;12.50;7.12;;;;;;;15.68;100.00;93022.62;1717025;80;21111;-80
2021/07/30 00:46:25;;;;;;;10.98;7.40;;;;;;;15.71;100.00;93018.22;1734707;80;21215;-79
2021/07/30 00:48:51;;;;;;;15.13;10.90;;;;;;;15.67;100.00;93018.32;1713831;80;21046;-78
2021/07/30 00:51:18;;;;;;;14.33;8.65;;;;;;;15.66;100.00;93014.66;1747893;80;21449;-79
2021/07/30 00:53:45;;;;;;;14.50;8.40;;;;;;;15.66;100.00;93011.31;1711096;78;21185;-78
2021/07/30 00:56:12;;;;;;;15.65;8.55;;;;;;;15.67;100.00;93013.45;1713347;80;21048;-79
2021/07/30 00:58:39;;;;;;;14.35;9.30;;;;;;;15.63;100.00;93012.76;1714189;81;21082;-79
2021/07/30 01:01:07;;;;;;;7.92;6.75;;;;;;;15.59;100.00;93014.84;1722165;79;21045;-79
2021/07/30 01:03:34;;;;;;;8.53;6.67;;;;;;;15.62;100.00;93015.34;1714863;80;21068;-79
2021/07/30 01:06:01;;;;;;;13.58;6.58;;;;;;;15.64;100.00;93020.53;1670129;80;21143;-79
2021/07/30 01:08:28;;;;;;;14.58;8.13;;;;;;;15.66;100.00;93011.92;1762108;79;21099;-79
2021/07/30 01:10:55;;;;;;;9.20;7.00;;;;;;;15.62;100.00;93019.45;1717293;80;21109;-79
2021/07/30 01:13:22;;;;;;;7.92;6.58;;;;;;;15.58;100.00;93016.81;1779022;80;21049;-82
2021/07/30 01:15:50;;;;;;;10.05;7.47;;;;;;;15.55;100.00;93016.31;1726820;80;21056;-79
2021/07/30 01:18:17;;;;;;;11.55;6.90;;;;;;;15.54;100.00;93015.55;1740471;80;21466;-79
2021/07/30 01:20:45;;;;;;;9.58;7.72;;;;;;;15.53;100.00;93009.91;1725384;81;20991;-78
2021/07/30 01:23:11;;;;;;;7.97;6.85;;;;;;;15.53;100.00;93010.48;1714429;79;22618;-77
2021/07/30 01:25:39;;;;;;;9.40;7.28;;;;;;;15.53;100.00;93021.44;1724022;80;21059;-77
2021/07/30 01:28:05;;;;;;;11.88;6.70;;;;;;;15.58;100.00;93031.88;1746427;80;21032;-78
2021/07/30 01:30:33;;;;;;;9.20;7.42;;;;;;;15.62;100.00;93037.27;1770352;79;21112;-79
2021/07/30 01:33:00;;;;;;;9.18;6.45;;;;;;;15.61;100.00;93025.53;1742350;80;21093;-79
2021/07/30 01:35:27;;;;;;;13.72;10.50;;;;;;;15.61;100.00;93026.91;1720208;80;22678;-79
2021/07/30 01:37:53;;;;;;;13.28;9.23;;;;;;;15.61;100.00;93027.48;1723019;79;21329;-79
2021/07/30 01:40:21;;;;;;;13.22;8.20;;;;;;;15.62;100.00;93030.41;1743495;80;21050;-79
2021/07/30 01:42:48;;;;;;;11.60;8.13;;;;;;;15.62;100.00;93031.78;1685384;80;21032;-79
2021/07/30 01:45:15;;;;;;;13.48;8.48;;;;;;;15.63;100.00;93028.59;1723645;80;21104;-79
2021/07/30 01:47:43;;;;;;;11.43;8.00;;;;;;;15.59;100.00;93038.12;1695799;80;21077;-80
2021/07/30 01:50:10;;;;;;;11.80;9.60;;;;;;;15.56;100.00;93028.80;1693938;80;21037;-78
2021/07/30 01:52:37;;;;;;;10.18;7.72;;;;;;;15.60;100.00;93031.44;1722504;80;21092;-79
2021/07/30 01:55:05;;;;;;;10.60;7.22;;;;;;;15.59;100.00;93036.16;1700847;80;21011;-79
2021/07/30 01:57:32;;;;;;;9.55;7.17;;;;;;;15.58;100.00;93032.48;1743221;80;21034;-79
2021/07/30 02:00:03;;;;;;;10.60;7.65;;;;;;;15.52;100.00;93029.50;1720160;80;21044;-80
2021/07/30 02:02:33;;;;;;;8.95;6.80;;;;;;;15.53;100.00;93033.77;1745432;80;21013;-79
2021/07/30 02:05:00;;;;;;;10.20;6.92;;;;;;;15.55;100.00;93029.41;1717744;80;21624;-79
2021/07/30 02:07:29;;;;;;;9.60;7.25;;;;;;;15.47;100.00;93026.70;1746386;79;21678;-77
2021/07/30 02:09:55;;;;;;;8.25;6.92;;;;;;;15.41;100.00;93022.95;1738660;79;21466;-77
2021/07/30 02:12:25;;;;;;;14.58;7.37;;;;;;;15.43;100.00;93026.66;1696138;80;21124;-79
2021/07/30 02:14:52;;;;;;;9.80;7.58;;;;;;;15.38;100.00;93025.19;1674990;80;21042;-79
2021/07/30 02:17:19;;;;;;;9.38;7.75;;;;;;;15.37;100.00;93030.52;1741568;80;21052;-77
2021/07/30 02:19:46;;;;;;;10.13;7.40;;;;;;;15.41;100.00;93031.18;1700439;80;21039;-78
2021/07/30 02:22:13;;;;;;;9.50;7.72;;;;;;;15.41;100.00;93031.78;1769628;79;21537;-77
2021/07/30 02:24:39;;;;;;;9.13;7.33;;;;;;;15.42;100.00;93034.11;1728069;80;22200;-77
2021/07/30 02:27:07;;;;;;;12.88;8.15;;;;;;;15.45;100.00;93035.19;1690347;80;21577;-76
2021/07/30 02:29:34;;;;;;;8.20;7.40;;;;;;;15.48;100.00;93032.95;1728212;79;21024;-76
2021/07/30 02:32:01;;;;;;;9.90;8.03;;;;;;;15.50;100.00;93029.95;1713809;79;21098;-76
2021/07/30 02:34:28;;;;;;;8.40;6.80;;;;;;;15.57;100.00;93030.94;1690207;79;21147;-77
2021/07/30 02:36:55;;;;;;;8.63;7.60;;;;;;;15.61;100.00;93026.11;1698087;80;21266;-78
2021/07/30 02:39:21;;;;;;;13.98;8.10;;;;;;;15.61;100.00;93032.39;1696006;79;21068;-77
2021/07/30 02:41:50;;;;;;;10.68;7.65;;;;;;;15.58;100.00;93030.52;1722637;80;21052;-78
2021/07/30 02:44:17;;;;;;;9.10;8.15;;;;;;;15.58;100.00;93030.52;1689602;81;21080;-78
2021/07/30 02:46:44;;;;;;;8.03;7.22;;;;;;;15.59;100.00;93033.41;1673159;80;21599;-78
2021/07/30 02:49:10;;;;;;;13.40;7.40;;;;;;;15.59;100.00;93025.19;1746754;80;21589;-79
2021/07/30 02:51:39;;;;;;;9.35;7.72;;;;;;;15.61;100.00;93031.59;1692967;80;21599;-78
2021/07/30 02:54:06;;;;;;;11.10;6.97;;;;;;;15.62;100.00;93031.78;1740651;79;21763;-77
2021/07/30 02:56:33;;;;;;;8.35;6.30;;;;;;;15.61;100.00;93040.61;1719816;80;21062;-76
2021/07/30 02:59:01;;;;;;;10.05;6.28;;;;;;;15.61;100.00;93041.98;1670606;80;21133;-78
2021/07/30 03:01:28;;;;;;;8.10;6.33;;;;;;;15.63;100.00;93036.05;1725706;79;21128;-77
2021/07/30 03:03:54;;;;;;;11.40;6.37;;;;;;;15.63;100.00;93035.45;1764339;80;21032;-77
2021/07/30 03:06:23;;;;;;;8.43;6.15;;;;;;;15.65;100.00;93035.82;1741011;80;21102;-77
2021/07/30 03:08:51;;;;;;;8.68;6.10;;;;;;;15.68;100.00;93038.27;1740424;80;21030;-77
2021/07/30 03:11:17;;;;;;;11.75;6.12;;;;;;;15.67;100.00;93040.25;1721738;80;21105;-77
2021/07/30 03:13:44;;;;;;;27.55;7.28;;;;;;;15.67;100.00;93037.50;1747672;80;21067;-78
2021/07/30 03:16:13;;;;;;;12.88;7.40;;;;;;;15.65;100.00;93042.67;1695380;80;21081;-77
2021/07/30 03:18:41;;;;;;;13.00;7.75;;;;;;;15.61;100.00;93040.61;1718652;80;21069;-77
2021/07/30 03:21:07;;;;;;;8.33;6.58;;;;;;;15.60;100.00;93039.66;1692581;81;21047;-77
2021/07/30 03:23:34;;;;;;;11.33;7.08;;;;;;;15.60;100.00;93036.31;1693512;80;21068;-77
2021/07/30 03:26:00;;;;;;;8.78;6.87;;;;;;;15.61;100.00;93043.92;1693482;81;21554;-77
2021/07/30 03:28:27;;;;;;;8.03;6.53;;;;;;;15.63;100.00;93033.31;1660181;79;21675;-77
2021/07/30 03:31:00;;;;;;;7.87;6.30;;;;;;;15.67;100.00;93033.39;1727923;80;21724;-77
2021/07/30 03:33:28;;;;;;;10.08;6.35;;;;;;;15.71;100.00;93035.42;1743709;80;21096;-77
2021/07/30 03:35:55;;;;;;;11.03;6.65;;;;;;;15.72;100.00;93040.30;1719009;80;21641;-77
2021/07/30 03:38:22;;;;;;;7.65;6.85;;;;;;;15.68;100.00;93044.55;1700587;80;21785;-78
2021/07/30 03:40:48;;;;;;;8.23;6.00;;;;;;;15.70;100.00;93045.47;1641597;80;21049;-79
2021/07/30 03:43:15;;;;;;;9.83;6.45;;;;;;;15.67;100.00;93046.33;1740814;79;20996;-78
2021/07/30 03:45:41;;;;;;;9.48;6.78;;;;;;;15.65;100.00;93046.78;1701346;80;21104;-77
2021/07/30 03:48:08;;;;;;;6.33;5.80;;;;;;;15.62;100.00;93040.77;1720345;80;21144;-77
2021/07/30 03:50:34;;;;;;;6.97;5.87;;;;;;;15.63;100.00;93047.02;1696786;80;21056;-77
2021/07/30 03:53:01;;;;;;;8.13;6.35;;;;;;;15.61;100.00;93052.15;1719052;80;21033;-77
2021/07/30 03:55:31;;;;;;;7.62;5.95;;;;;;;15.60;100.00;93054.12;1719670;79;21057;-77
2021/07/30 03:57:58;;;;;;;11.53;6.35;;;;;;;15.61;100.00;93059.00;1739786;80;21080;-76
2021/07/30 04:00:25;;;;;;;7.33;6.62;;;;;;;15.62;100.00;93057.81;1687592;79;21100;-76
2021/07/30 04:02:51;;;;;;;8.78;6.67;;;;;;;15.63;100.00;93053.86;1745969;80;21892;-76
2021/07/30 04:05:18;;;;;;;7.58;6.75;;;;;;;15.63;100.00;93046.41;1686495;80;21108;-76
2021/07/30 04:07:44;;;;;;;7.22;6.53;;;;;;;15.65;100.00;93047.36;1719479;78;21192;-76
2021/07/30 04:10:12;;;;;;;12.73;9.53;;;;;;;15.68;100.00;93047.86;1714238;79;22176;-75
2021/07/30 04:12:40;;;;;;;10.60;7.78;;;;;;;15.74;100.00;93058.46;1703213;79;21024;-77
2021/07/30 04:15:08;;;;;;;10.23;7.17;;;;;;;15.75;100.00;93052.53;1720807;79;21144;-76
2021/07/30 04:17:39;;;;;;;10.82;9.55;;;;;;;15.78;100.00;93053.03;1719928;78;21797;-76
2021/07/30 04:20:06;;;;;;;8.70;7.33;;;;;;;15.81;100.00;93047.29;1735175;79;21067;-77
2021/07/30 04:22:33;;;;;;;8.40;7.22;;;;;;;15.82;100.00;93047.45;1684017;81;21591;-77
2021/07/30 04:25:00;;;;;;;7.87;6.72;;;;;;;15.82;100.00;93040.59;1721481;80;21279;-78
2021/07/30 04:27:27;;;;;;;9.20;8.28;;;;;;;15.82;100.00;93039.22;1720962;79;21096;-77
2021/07/30 04:29:55;;;;;;;9.80;7.90;;;;;;;15.83;100.00;93045.47;1756753;79;21084;-78
2021/07/30 04:32:22;;;;;;;11.28;7.22;;;;;;;15.86;100.00;93040.48;1752091;80;21365;-77
2021/07/30 04:34:49;;;;;;;8.45;7.55;;;;;;;15.91;100.00;93034.45;1720904;79;21067;-76
2021/07/30 04:37:19;;;;;;;11.12;7.87;;;;;;;15.97;100.00;93037.59;1747551;78;21092;-78
2021/07/30 04:39:46;;;;;;;18.65;10.32;;;;;;;16.05;100.00;93038.13;1780796;79;21181;-79
2021/07/30 04:42:15;;;;;;;20.75;10.65;;;;;;;16.09;100.00;93040.77;1747378;78;21116;-76
2021/07/30 04:44:42;;;;;;;20.88;13.65;;;;;;;16.15;100.00;93037.05;1751470;77;21132;-77
2021/07/30 04:47:09;;;;;;;33.53;17.57;;;;;;;16.22;100.00;93034.08;1777422;79;21514;-77
2021/07/30 04:49:37;;;;;;;21.48;13.83;;;;;;;16.32;100.00;93036.30;1722189;78;21083;-77
2021/07/30 04:52:05;;;;;;;17.92;11.03;;;;;;;16.40;100.00;93034.89;1776974;77;21231;-77
2021/07/30 04:57:54;;;;;;;12.00;8.78;;;;;;;16.63;100.00;93033.75;1826461;77;21037;-78
2021/07/30 05:00:22;;;;;;;10.32;8.35;;;;;;;16.83;100.00;93028.62;1741221;77;21340;-77
2021/07/30 05:02:53;;;;;;;9.53;7.65;;;;;;;16.95;99.71;93023.68;1768915;77;21068;-77
2021/07/30 05:05:20;;;;;;;9.13;7.87;;;;;;;17.06;99.11;93025.45;1791412;78;21071;-78
2021/07/30 05:07:48;;;;;;;8.85;7.25;;;;;;;17.27;98.96;93023.94;1806631;77;21614;-78
2021/07/30 05:10:15;;;;;;;11.65;7.30;;;;;;;17.58;98.01;93025.97;1780385;79;21067;-78
2021/07/30 05:12:42;;;;;;;40.38;8.65;;;;;;;17.91;96.89;93024.35;1749606;78;20981;-78
2021/07/30 05:15:11;;;;;;;12.55;8.15;;;;;;;18.21;95.20;93026.16;1766880;78;21822;-77
2021/07/30 05:17:39;;;;;;;18.62;13.58;;;;;;;18.45;93.91;93024.39;1721192;79;22831;-77
2021/07/30 05:21:45;;;;;;;12.45;7.92;;;;;;;18.73;91.24;93025.88;1836584;76;22772;-77
2021/07/30 05:24:13;;;;;;;10.43;6.78;;;;;;;18.69;89.33;93027.36;1723796;77;21189;-76
2021/07/30 05:26:40;;;;;;;7.60;6.60;;;;;;;18.64;88.26;93023.82;1687218;81;21382;-77
2021/07/30 05:29:07;;;;;;;8.73;6.92;;;;;;;18.56;88.03;93028.09;1643882;81;21121;-78
2021/07/30 05:31:34;;;;;;;8.65;7.03;;;;;;;18.51;88.34;93027.33;1673654;81;21140;-75
2021/07/30 05:34:01;;;;;;;9.80;6.97;;;;;;;18.52;88.28;93028.84;1650178;82;21097;-75
2021/07/30 05:36:28;;;;;;;8.13;6.33;;;;;;;18.56;88.59;93031.45;1642944;83;21149;-76
2021/07/30 05:38:56;;;;;;;7.92;7.12;;;;;;;18.63;89.03;93035.30;1664489;81;21269;-77
2021/07/30 05:41:23;;;;;;;10.95;7.92;;;;;;;18.72;88.93;93035.34;1688994;81;21140;-76
2021/07/30 05:43:51;;;;;;;8.15;7.33;;;;;;;18.84;88.86;93032.30;1648403;81;21368;-73
2021/07/30 05:46:25;;;;;;;10.85;7.67;;;;;;;19.07;88.34;93036.44;1682939;81;21164;-77
2021/07/30 05:48:56;;;;;;;9.90;7.67;;;;;;;19.40;88.02;93036.59;1672139;81;21654;-77
2021/07/30 05:51:20;;;;;;;10.03;7.30;;;;;;;19.83;86.29;93039.64;1660021;81;21156;-77
2021/07/30 05:53:47;;;;;;;10.60;6.97;;;;;;;20.16;84.52;93033.42;1638098;81;21085;-76
2021/07/30 05:56:14;;;;;;;8.43;6.78;;;;;;;20.43;82.78;93036.68;1689030;81;20990;-79
2021/07/30 05:59:48;;;;;;;8.48;6.87;;;;;;;20.68;80.22;93027.20;1812016;77;22147;-79
2021/07/30 06:02:14;;;;;;;7.92;7.12;;;;;;;20.72;79.84;93032.55;1771682;78;21076;-77
2021/07/30 06:04:43;;;;;;;9.13;7.33;;;;;;;20.82;79.71;93029.27;1696710;80;21395;-79
2021/07/30 06:07:10;;;;;;;9.55;6.50;;;;;;;21.02;78.75;93021.77;1756940;80;21090;-78
2021/07/30 06:12:09;;;;;;;10.58;7.80;;;;;;;21.85;75.88;93016.16;1834131;77;22735;-80
2021/07/30 06:14:36;;;;;;;12.70;7.67;;;;;;;22.28;73.82;93014.02;1753404;78;22082;-78
2021/07/30 06:17:03;;;;;;;9.95;6.28;;;;;;;22.76;71.80;93015.73;1778046;78;21128;-77
2021/07/30 06:19:30;;;;;;;10.38;6.30;;;;;;;23.14;69.92;93011.96;1727891;78;22027;-74
2021/07/30 06:21:57;;;;;;;10.20;7.00;;;;;;;23.34;69.21;93019.50;1723614;78;21144;-75
2021/07/30 06:24:24;;;;;;;7.62;6.40;;;;;;;23.46;68.76;93012.06;1720264;81;21088;-77
2021/07/30 06:31:11;;;;;;;7.00;6.33;;;;;;;23.44;67.78;93007.64;1772347;78;21062;-76
2021/07/30 06:33:38;;;;;;;8.60;6.97;;;;;;;23.13;68.16;93005.50;1718326;80;21113;-75
2021/07/30 06:36:10;;;;;;;7.78;7.05;;;;;;;23.00;69.22;93012.78;1694094;81;21111;-76
2021/07/30 06:38:39;;;;;;;8.18;6.55;;;;;;;22.95;69.12;93009.33;1669592;81;21773;-76
2021/07/30 06:41:14;;;;;;;7.92;6.55;;;;;;;22.94;69.16;93004.41;1720637;81;21100;-76
2021/07/30 06:43:41;;;;;;;8.70;6.58;;;;;;;22.95;69.09;92997.61;1719661;80;21119;-77
2021/07/30 06:46:07;;;;;;;9.63;6.45;;;;;;;22.90;68.95;93000.27;1743833;80;21094;-75
2021/07/30 06:48:34;;;;;;;8.60;6.47;;;;;;;22.79;68.58;92996.72;1680449;81;21077;-77
2021/07/30 06:51:01;;;;;;;7.97;6.90;;;;;;;22.62;69.44;92996.51;1738324;80;21216;-76
2021/07/30 06:53:28;;;;;;;8.73;7.15;;;;;;;22.54;70.10;92994.77;1722550;78;21164;-76
2021/07/30 06:55:55;;;;;;;9.25;7.35;;;;;;;22.53;71.05;92991.86;1698484;80;21096;-76
2021/07/30 06:58:21;;;;;;;8.85;6.70;;;;;;;22.53;71.47;92996.64;1731622;80;21073;-76
2021/07/30 07:00:48;;;;;;;7.30;6.58;;;;;;;22.54;70.15;92996.78;1735885;81;21140;-77
2021/07/30 07:03:14;;;;;;;7.20;5.47;;;;;;;22.53;69.22;92994.63;1715220;81;21125;-75
2021/07/30 07:05:41;;;;;;;9.05;5.85;;;;;;;22.54;68.26;92988.47;1725360;78;21089;-76
2021/07/30 07:08:08;;;;;;;6.47;5.47;;;;;;;22.51;67.35;92997.11;1708099;78;21430;-76
2021/07/30 07:10:35;;;;;;;7.83;6.47;;;;;;;22.49;67.44;92996.84;1703340;78;21073;-77
2021/07/30 07:13:06;;;;;;;7.75;6.78;;;;;;;22.50;68.38;92995.59;1746291;79;21174;-77
2021/07/30 07:15:34;;;;;;;7.17;6.33;;;;;;;22.55;68.16;92992.75;1756483;79;21037;-77
2021/07/30 07:18:01;;;;;;;7.60;6.30;;;;;;;22.60;67.58;92987.91;1727363;80;21128;-76
2021/07/30 07:20:29;;;;;;;9.88;6.33;;;;;;;22.66;67.70;92987.38;1684950;81;21104;-77
2021/07/30 07:22:56;;;;;;;5.60;5.10;;;;;;;22.69;67.21;92990.56;1661774;81;21174;-78
2021/07/30 07:25:28;;;;;;;6.08;5.50;;;;;;;22.72;66.21;92986.07;1733461;80;21623;-79
2021/07/30 07:27:55;;;;;;;6.22;5.17;;;;;;;22.77;65.63;92978.45;1679759;82;21110;-76
2021/07/30 07:30:22;;;;;;;6.95;5.08;;;;;;;22.84;65.73;92973.87;1685894;82;22330;-76
2021/07/30 07:32:48;;;;;;;4.87;4.42;;;;;;;22.91;63.37;92975.48;1719124;79;21982;-75
2021/07/30 07:35:14;;;;;;;4.60;4.20;;;;;;;22.94;61.75;92975.30;1715982;78;21160;-76
2021/07/30 07:37:42;;;;;;;4.53;4.15;;;;;;;22.94;60.11;92972.53;1748551;78;21081;-76
2021/07/30 07:40:09;;;;;;;5.17;4.67;;;;;;;22.97;60.51;92977.08;1748680;79;21046;-76
2021/07/30 07:42:36;;;;;;;6.72;4.78;;;;;;;23.01;59.71;92979.02;1772624;78;21780;-82
2021/07/30 07:45:03;;;;;;;6.42;4.37;;;;;;;23.05;59.02;92979.44;1765450;78;21073;-77
2021/07/30 07:47:29;;;;;;;5.15;4.42;;;;;;;23.14;60.04;92979.31;1775252;78;21405;-76
2021/07/30 07:49:56;;;;;;;5.37;4.70;;;;;;;23.26;60.67;92979.57;1768855;79;21570;-76
2021/07/30 07:53:17;;;;;;;6.33;5.30;;;;;;;23.50;60.90;92973.77;1818837;77;22613;-76
2021/07/30 07:58:13;;;;;;;5.85;5.10;;;;;;;23.69;60.71;92968.68;1862261;74;22617;-77
2021/07/30 08:00:42;;;;;;;7.65;5.00;;;;;;;23.67;60.32;92967.79;1828952;76;21101;-77
2021/07/30 08:03:10;;;;;;;5.20;4.72;;;;;;;23.66;58.83;92968.27;1758920;76;21675;-78
2021/07/30 08:05:38;;;;;;;7.30;4.72;;;;;;;23.61;59.80;92971.09;1744253;76;21010;-76
2021/07/30 08:08:07;;;;;;;6.10;5.60;;;;;;;23.57;59.94;92965.64;1824329;76;21140;-76
2021/07/30 08:10:37;;;;;;;9.25;5.20;;;;;;;23.54;61.03;92970.14;1758562;76;21346;-78
2021/07/30 08:13:04;;;;;;;8.38;5.50;;;;;;;23.57;61.45;92967.78;1773097;77;21077;-81
2021/07/30 08:15:31;;;;;;;5.85;5.35;;;;;;;23.60;60.95;92974.37;1761599;76;22583;-76
2021/07/30 08:17:59;;;;;;;6.15;5.55;;;;;;;23.60;61.16;92970.22;1750356;77;21657;-77
2021/07/30 08:20:27;;;;;;;5.75;4.80;;;;;;;23.58;60.34;92976.23;1812397;77;21092;-78
2021/07/30 08:22:54;;;;;;;5.30;4.53;;;;;;;23.49;59.74;92966.70;1771669;77;21827;-78
2021/07/30 08:25:20;;;;;;;15.18;6.67;;;;;;;23.40;59.65;92975.95;1786139;77;20958;-76
2021/07/30 08:27:51;;;;;;;11.12;6.08;;;;;;;23.40;59.76;92974.56;1790441;76;21869;-80
2021/07/30 08:30:18;;;;;;;7.67;5.00;;;;;;;23.43;59.63;92972.80;1651292;83;21104;-80
2021/07/30 08:32:45;;;;;;;8.00;4.60;;;;;;;23.42;59.42;92975.45;1666236;83;21032;-79
2021/07/30 08:38:00;;;;;;;11.90;4.83;;;;;;;23.33;57.97;92968.68;1838104;76;22843;-78
2021/07/30 08:40:31;;;;;;;5.42;4.62;;;;;;;23.28;58.72;92972.89;1801661;77;21072;-78
2021/07/30 08:43:00;;;;;;;5.08;4.08;;;;;;;23.35;59.03;92971.72;1819469;77;21124;-78
2021/07/30 08:45:27;;;;;;;7.05;5.08;;;;;;;23.46;57.45;92963.51;1811742;76;21097;-77
2021/07/30 08:50:05;;;;;;;7.80;5.10;;;;;;;23.67;57.03;92953.91;1837870;76;23224;-75
2021/07/30 08:52:37;;;;;;;5.60;4.12;;;;;;;23.68;57.42;92960.22;1793238;77;21113;-78
2021/07/30 08:55:04;;;;;;;7.33;4.70;;;;;;;23.72;56.40;92959.37;1743545;79;21148;-78
2021/07/30 08:57:31;;;;;;;14.05;11.93;;;;;;;23.75;56.05;92960.55;1731907;80;21102;-77
2021/07/30 09:00:11;;;;;;;9.40;7.80;;;;;;;23.80;56.39;92956.29;1701303;80;22239;-78
2021/07/30 09:02:38;;;;;;;9.25;6.08;;;;;;;23.84;56.53;92955.44;1785724;77;20988;-74
2021/07/30 09:05:26;;;;;;;5.78;4.80;;;;;;;23.89;57.15;92958.91;1770003;77;20899;-77
2021/07/30 09:07:53;;;;;;;8.28;5.50;;;;;;;23.91;56.06;92952.22;1801254;77;21197;-78
2021/07/30 09:10:40;;;;;;;5.85;4.95;;;;;;;23.95;55.87;92953.39;1798152;77;20950;-75
2021/07/30 09:13:23;;;;;;;3.95;3.55;;;;;;;23.96;55.38;92957.70;1788111;77;21544;-75
2021/07/30 09:19:10;;;;;;;9.00;4.83;;;;;;;23.81;52.65;92951.50;1862238;74;22778;-77
2021/07/30 09:24:20;;;;;;;4.53;3.52;;;;;;;23.73;53.08;92951.96;1894647;74;22138;-77
2021/07/30 09:26:53;;;;;;;4.15;3.37;;;;;;;23.69;52.95;92954.17;1795652;75;20924;-76
2021/07/30 09:29:27;;;;;;;6.58;4.35;;;;;;;23.76;53.65;92952.97;1829461;75;21287;-78
2021/07/30 09:31:59;;;;;;;3.70;3.40;;;;;;;23.83;50.82;92942.06;1834959;76;20957;-77
2021/07/30 09:34:37;;;;;;;4.25;3.62;;;;;;;23.89;52.14;92940.86;1772231;75;21571;-77
2021/07/30 09:37:09;;;;;;;4.62;3.52;;;;;;;23.93;51.24;92937.86;1786332;76;21069;-75
2021/07/30 09:39:41;;;;;;;6.87;4.78;;;;;;;23.97;48.84;92928.05;1812157;75;20982;-77
2021/07/30 09:42:13;;;;;;;5.95;3.83;;;;;;;24.04;50.55;92933.78;1806609;75;21024;-77
2021/07/30 09:44:53;;;;;;;4.37;3.80;;;;;;;24.12;49.72;92928.54;1807947;75;20847;-76
2021/07/30 09:47:34;;;;;;;3.98;3.67;;;;;;;24.20;51.54;92928.97;1793185;75;21020;-75
2021/07/30 09:50:07;;;;;;;5.65;5.08;;;;;;;24.31;52.69;92928.92;1833849;76;21048;-76
2021/07/30 09:52:38;;;;;;;5.53;4.87;;;;;;;24.31;55.40;92919.20;1804519;75;21083;-76
2021/07/30 09:55:10;;;;;;;8.45;5.05;;;;;;;24.17;55.46;92925.03;1832801;75;21664;-76
2021/07/30 09:57:43;;;;;;;6.15;5.17;;;;;;;24.13;57.70;92921.72;1829449;75;21083;-78
2021/07/30 10:00:17;;;;;;;6.03;5.42;;;;;;;24.09;59.26;92923.34;1831712;76;21056;-76
2021/07/30 10:02:45;;;;;;;4.90;4.50;;;;;;;24.04;59.06;92917.76;1806245;75;21045;-77
2021/07/30 10:05:14;;;;;;;5.65;4.70;;;;;;;24.05;60.06;92921.41;1837044;75;21095;-77
2021/07/30 10:07:42;;;;;;;7.22;5.37;;;;;;;24.08;60.36;92912.10;1833210;75;21053;-75
2021/07/30 10:10:23;;;;;;;6.28;4.47;;;;;;;24.10;59.00;92910.97;1739517;78;21089;-78
2021/07/30 10:15:10;;;;;;;4.60;4.20;;;;;;;24.18;57.20;92914.05;1825701;77;22936;-76
2021/07/30 10:17:51;;;;;;;6.28;4.30;;;;;;;24.18;55.02;92913.44;1694961;81;21140;-78
2021/07/30 10:20:21;;;;;;;3.85;3.55;;;;;;;24.25;54.72;92916.37;1705894;80;21793;-78
2021/07/30 10:23:07;;;;;;;4.30;3.90;;;;;;;24.34;55.16;92913.41;1712062;81;21387;-81
2021/07/30 10:25:44;;;;;;;5.42;4.10;;;;;;;24.42;52.54;92913.11;1722535;80;21096;-80
2021/07/30 10:28:20;;;;;;;5.55;3.90;;;;;;;24.50;53.71;92903.67;1701569;80;21486;-78
2021/07/30 10:30:59;;;;;;;5.35;3.90;;;;;;;24.60;53.27;92902.84;1700503;80;21166;-78
2021/07/30 10:33:37;;;;;;;4.53;3.40;;;;;;;24.69;53.90;92901.23;1693457;81;21073;-77
2021/07/30 10:36:09;;;;;;;5.78;3.65;;;;;;;24.76;53.33;92903.55;1719607;80;21540;-80
2021/07/30 10:38:36;;;;;;;5.12;4.10;;;;;;;24.81;52.83;92899.26;1727474;81;21658;-77
2021/07/30 10:41:11;;;;;;;4.80;3.90;;;;;;;24.79;51.62;92898.37;1748490;80;21093;-77
2021/07/30 10:44:06;;;;;;;6.65;3.87;;;;;;;24.70;51.65;92884.68;1721163;81;21007;-77
2021/07/30 10:46:33;;;;;;;;;;;;;;;24.69;50.25;92892.90;1619801;85;22612;-75
2021/07/30 10:48:59;;;;;;;4.90;3.62;;;;;;;24.63;49.33;92878.20;1601217;85;20244;-78
2021/07/30 10:51:30;;;;;;;7.40;4.00;;;;;;;24.56;48.39;92885.62;1657470;80;21496;-77
2021/07/30 10:54:01;;;;;;;4.50;3.60;;;;;;;24.46;50.11;92883.06;1700023;80;21139;-78
2021/07/30 10:56:39;;;;;;;4.45;3.90;;;;;;;24.38;51.16;92876.42;1757481;78;21159;-77
2021/07/30 10:59:06;;;;;;;3.80;3.50;;;;;;;24.37;51.44;92883.85;1802507;78;21085;-78
2021/07/30 11:03:58;;;;;;;5.10;3.70;;;;;;;24.51;48.61;92867.67;1858731;74;22146;-77
2021/07/30 11:07:48;;;;;;;4.35;3.37;;;;;;;24.60;47.76;92859.77;1841945;76;23450;-71
2021/07/30 11:10:18;;;;;;;3.95;3.55;;;;;;;24.63;47.56;92868.48;1784875;77;21053;-75
2021/07/30 11:12:44;;;;;;;3.62;3.25;;;;;;;24.66;45.60;92868.23;1799400;77;21450;-75
2021/07/30 11:15:11;;;;;;;5.25;3.70;;;;;;;24.71;46.15;92868.91;1799368;77;21113;-76
2021/07/30 11:17:39;;;;;;;3.60;3.30;;;;;;;24.77;46.84;92861.97;1756252;77;22037;-74
2021/07/30 11:20:08;;;;;;;3.40;3.10;;;;;;;24.88;46.79;92875.16;1756623;77;21110;-75
2021/07/30 11:22:37;;;;;;;4.47;2.52;;;;;;;24.92;44.71;92867.33;1730320;80;21799;-74
2021/07/30 11:25:05;;;;;;;4.40;3.47;;;;;;;24.93;43.84;92864.67;1792337;77;21073;-77
2021/07/30 11:29:51;;;;;;;4.65;4.22;;;;;;;25.04;44.74;92850.03;1860653;74;22646;-76
2021/07/30 11:32:20;;;;;;;4.08;3.08;;;;;;;25.04;44.93;92843.08;1778299;76;21115;-75
2021/07/30 11:34:49;;;;;;;3.40;3.12;;;;;;;25.10;45.65;92861.34;1789896;76;21101;-78
2021/07/30 11:40:21;;;;;;;4.40;3.25;;;;;;;25.20;42.33;92852.14;1822632;77;23455;-74
2021/07/30 11:45:29;;;;;;;3.80;3.40;;;;;;;25.25;42.82;92839.50;1806209;76;23348;-75
2021/07/30 11:47:58;;;;;;;4.90;3.22;;;;;;;25.26;42.77;92846.57;1766781;78;21874;-76
2021/07/30 11:55:42;;;;;;;3.52;3.12;;;;;;;25.51;45.29;92835.09;1860005;75;22584;-78
2021/07/30 11:58:10;;;;;;;4.37;3.12;;;;;;;25.58;43.83;92822.83;1802661;75;21658;-80
2021/07/30 12:05:34;;;;;;;4.35;3.20;;;;;;;25.86;41.21;92828.39;1870403;74;22708;-76
2021/07/30 12:08:00;;;;;;;5.87;3.05;;;;;;;25.84;41.87;92828.16;1782372;77;21108;-76
2021/07/30 12:24:22;;;;;;;3.15;2.90;;;;;;;25.85;42.49;92812.95;1837769;75;21948;-74
2021/07/30 12:31:44;;;;;;;3.10;2.90;;;;;;;25.82;39.39;92815.36;1824213;77;22669;-77
2021/07/30 12:34:16;;;;;;;4.03;2.75;;;;;;;25.75;39.08;92808.13;1720656;78;21183;-76
2021/07/30 12:36:43;;;;;;;5.25;3.25;;;;;;;25.73;37.64;92812.82;1743982;78;21145;-75
2021/07/30 12:39:11;;;;;;;4.00;3.22;;;;;;;25.73;40.09;92812.82;1725636;78;21161;-75
2021/07/30 12:41:38;;;;;;;4.58;3.20;;;;;;;25.75;38.90;92814.45;1763787;78;21128;-73
2021/07/30 12:44:16;;;;;;;2.90;2.70;;;;;;;25.76;39.31;92811.03;1737035;78;21115;-75